VASU

Surat Airport

Airport
ICAO code
VASU
IATA Code
STV
Summary
ICAO Region
APAC
ICAO Territory
Location

Magdalla, Gujarat

Serving
Surat
Elevation
16 ft
Coordinates
21° 6' 51" N , 72° 44' 30" E
KCC
Metar
Observation
VASU 281000Z 27006KT 6000 NSC 30/17 Q1009 NOSIG
Station
Surat Airport
Date/Time
2022-11-28 10:00:00
Wind direction
270°
Wind speed
06 kts
Lowest cloud amount
nil significant cloud
Temperature
30°C
Dew point
17°C
Humidity
45%
QNH
1009 hPa
Weather condition
n/a

Climatology

Tropical Savanna climate (Köppen climate classification Aw)

Runways

Designator Length Width Surface Rops
4/22 2250 30 ASP No/No

Airport map

Aerial View

SKYbrary Partners:

Safety knowledge contributed by: